McCullochs Mills, Pennsylvania
Current Conditions -  °F | °C
As of 10:53 AM on Thursday 18 Dec 2014 (Local Time) from KUNV Reporting Station
Overcast Overcast  
Wind Chill: 20°   Ceiling: 2000
Heat Index: 30°   Visibility: 7mi
Dew Point: 23°   Wind: 14mph
Humidity: 75%   Direction: 280°W
Pressure: 30.09"   Gusts: NA
Location:  40.4333°N, 77.5863°W
Report Text: KUNV 181553Z 28012KT 7SM OVC020 M01/M05 A3009
Loading
Personal Weather Stations






























Interactive Weather Map New forecast layout! Learn more

10-Day Weather Forecast

Advertisements
Track Severe Weather on mobile